Flight Track Log - Related Links

Times and Time Zones

All times are in EST time to prevent confusion due to time zone crossing. See the AMF1990 flight status page for this flight to view local times or setup timezone preferences in your user account.

Time Position Orientation Groundspeed Altitude Reporting Facility
EST Latitude Longitude Course Direction KTS MPH feet Rate Location/Type
Thu 08:45:23 AM 29.5408 -98.4786 321° Northwest 123 142 1,600  Level Houston Center
Thu 08:45:35 AM 29.5478 -98.4850 321° Northwest 133 153 2,000 2,466 Climbing Houston Center
Thu 08:46:36 AM 29.5814 -98.5097 327° Northwest 159 183 4,600 2,504 Climbing Houston Center
Thu 08:47:30 AM 29.6231 -98.5286 338° Northwest 189 217 6,800 2,495 Climbing Houston Center
Thu 08:48:17 AM 29.6606 -98.5444 340° North 179 206 8,800 2,557 Climbing Houston Center
Thu 08:48:31 AM 29.6711 -98.5494 338° Northwest 182 209 9,400 2,710 Climbing Houston Center
Thu 08:49:19 AM 29.7114 -98.5653 341° North 179 206 11,600 2,509 Climbing Houston Center
Thu 08:50:21 AM 29.7500 -98.6058 318° Northwest 188 216 14,000 2,323 Climbing Houston Center
Thu 08:51:23 AM 29.7853 -98.6544 310° West 186 214 16,400 1,984 Climbing Houston Center
Thu 08:52:25 AM 29.8169 -98.7011 308° West 186 214 18,100 1,645 Climbing Houston Center
Thu 08:53:27 AM 29.8511 -98.7506 309° West 196 226 19,800 919 Climbing Houston Center
Thu 08:54:29 AM 29.8919 -98.8108 308° West 227 261 20,000 97 Climbing Houston Center
Thu 08:55:31 AM 29.9333 -98.8739 307° West 246 283 20,000  Level Houston Center
Thu 08:56:33 AM 29.9814 -98.9383 311° West 246 283 20,000  Level Houston Center
Thu 08:57:35 AM 30.0233 -98.9975 309° West 240 276 20,000  Level Houston Center
Thu 08:58:37 AM 30.0706 -99.0597 311° West 240 276 20,000  Level Houston Center
Thu 08:59:39 AM 30.1083 -99.1139 309° West 241 277 20,000  Level Houston Center
Thu 09:00:41 AM 30.1497 -99.1753 308° West 243 280 20,000  Level Houston Center
Thu 09:01:43 AM 30.1919 -99.2353 309° West 242 278 20,000  Level Houston Center
Thu 09:02:44 AM 30.2406 -99.3078 308° West 240 276 20,000  Level Houston Center
Thu 09:03:46 AM 30.2839 -99.3672 310° West 241 277 20,000  Level Houston Center
Thu 09:04:48 AM 30.3258 -99.4275 309° West 241 277 20,000  Level Houston Center
Thu 09:05:50 AM 30.3681 -99.4867 310° West 240 276 20,000  Level Houston Center
Thu 09:06:52 AM 30.4111 -99.5461 310° West 241 277 20,000  Level Houston Center
Thu 09:07:54 AM 30.4531 -99.6056 309° West 241 277 20,000  Level Houston Center
Thu 09:08:56 AM 30.5036 -99.6767 310° West 239 275 20,000  Level Houston Center
Thu 09:09:58 AM 30.5453 -99.7381 308° West 243 280 20,000  Level Houston Center
Thu 09:11:00 AM 30.5858 -99.8006 307° West 244 281 20,000  Level Houston Center
Thu 09:12:02 AM 30.6236 -99.8639 305° West 241 277 20,000  Level Houston Center
Thu 09:13:04 AM 30.6631 -99.9283 305° West 245 282 20,000  Level Houston Center
Thu 09:14:06 AM 30.7072 -100.0031 305° West 237 273 20,000  Level Houston Center
Thu 09:15:08 AM 30.7472 -100.0672 306° West 242 278 20,000  Level Houston Center
Thu 09:16:10 AM 30.7836 -100.1317 303° West 242 278 20,000  Level Houston Center
Thu 09:17:12 AM 30.8189 -100.1983 302° West 242 278 20,000  Level Houston Center
Thu 09:18:14 AM 30.8531 -100.2628 302° West 238 274 20,000  Level Houston Center
Thu 09:19:16 AM 30.8883 -100.3286 302° West 239 275 20,000  Level Houston Center
Thu 09:20:18 AM 30.9322 -100.4069 303° West 241 277 20,000  Level Houston Center
Thu 09:21:20 AM 30.9686 -100.4700 304° West 238 274 20,000  Level Houston Center
Thu 09:22:22 AM 31.0067 -100.5353 304° West 242 278 20,000  Level Houston Center
Thu 09:23:24 AM 31.0442 -100.5994 304° West 241 277 20,000  Level Houston Center
Thu 09:24:26 AM 31.0819 -100.6639 304° West 241 277 20,000 -48 Level Houston Center
Thu 09:25:28 AM 31.1194 -100.7294 304° West 242 278 19,900 -581 Descending Houston Center
Thu 09:26:30 AM 31.1664 -100.8147 303° West 256 295 18,800 -968 Descending Houston Center
Thu 09:27:32 AM 31.2053 -100.8878 302° West 262 302 17,900 -629 Descending Houston Center
Thu 09:28:34 AM 31.2450 -100.9603 303° West 264 304 17,500 -581 Descending Houston Center
Thu 09:29:36 AM 31.2836 -101.0325 302° West 263 303 16,700 -968 Descending Houston Center
Thu 09:30:38 AM 31.3250 -101.1006 305° West 258 297 15,500 -1,171 Descending Houston Center
Thu 09:32:20 AM 31.4064 -101.2167 309° West 257 296 13,500 -1,390 Descending Fort Worth Center
Thu 09:33:22 AM 31.4453 -101.2842 304° West 252 290 11,700 -1,790 Descending Fort Worth Center
Thu 09:34:24 AM 31.4789 -101.3547 299° West 250 288 9,800 -1,452 Descending Fort Worth Center
Thu 09:35:26 AM 31.5108 -101.4264 298° West 248 285 8,700 -823 Descending Fort Worth Center
Thu 09:36:28 AM 31.5497 -101.4903 306° West 245 282 8,100 -339 Descending Fort Worth Center
Thu 09:37:30 AM 31.5950 -101.5639 306° West 235 270 8,000 -48 Descending Fort Worth Center
Thu 09:38:32 AM 31.6294 -101.6283 302° West 233 268 8,000  Level Fort Worth Center
Thu 09:39:34 AM 31.6564 -101.6961 295° West 232 267 8,000  Level Fort Worth Center
Thu 09:40:36 AM 31.6706 -101.7703 283° West 234 269 8,000  Level Fort Worth Center
Thu 09:41:38 AM 31.6861 -101.8436 284° West 233 268 8,000  Level Fort Worth Center
Thu 09:42:40 AM 31.7028 -101.9314 283° West 232 267 8,000  Level Fort Worth Center
Thu 09:43:42 AM 31.7625 -101.9669 333° Northwest 247 284 8,000 -242 Level Fort Worth Center
Thu 09:44:44 AM 31.8258 -101.9956 339° North 246 283 7,500 -726 Descending Fort Worth Center
Thu 09:45:46 AM 31.8897 -102.0300 335° Northwest 251 289 6,500 -919 Descending Fort Worth Center
Thu 09:46:48 AM 31.9517 -102.0658 334° Northwest 249 287 5,600 -677 Descending Fort Worth Center
Thu 09:47:50 AM 32.0028 -102.1147 321° Northwest 240 276 5,100 -339 Descending Fort Worth Center
Thu 09:48:52 AM 32.0339 -102.1872 297° West 211 243 4,900 -387 Descending Fort Worth Center
Thu 09:49:54 AM 31.9989 -102.2100 209° Southwest 187 215 4,300 -919 Descending Fort Worth Center
Thu 09:50:56 AM 31.9622 -102.2053 174° South 145 167 3,000 -1,258 Descending Fort Worth Center

Login

Don't have an account? Register now (free) for customized features, flight alerts, and more!